createdAt,value
2018-12-30T00:02:19.165Z,4.60
2018-12-30T00:07:25.732Z,4.60
2018-12-30T00:12:31.913Z,4.60
2018-12-30T00:17:37.993Z,4.60
2018-12-30T00:22:44.101Z,4.50
2018-12-30T00:27:50.238Z,4.50
2018-12-30T00:32:56.326Z,4.60
2018-12-30T00:38:02.334Z,4.60
2018-12-30T00:43:08.388Z,4.60
2018-12-30T00:48:14.552Z,4.60
2018-12-30T00:53:20.697Z,4.60
2018-12-30T00:58:26.820Z,4.70
2018-12-30T01:03:32.776Z,4.70
2018-12-30T01:08:39.045Z,4.80
2018-12-30T01:13:45.441Z,4.80
2018-12-30T01:18:51.510Z,4.80
2018-12-30T01:23:57.980Z,4.80
2018-12-30T01:29:03.992Z,4.90
2018-12-30T01:34:10.557Z,4.90
2018-12-30T01:39:16.626Z,4.90
2018-12-30T01:44:23.292Z,4.90
2018-12-30T01:49:29.529Z,4.90
2018-12-30T01:54:36.116Z,4.80
2018-12-30T01:59:42.330Z,4.80
2018-12-30T02:04:48.834Z,4.90
2018-12-30T02:09:54.920Z,4.90
2018-12-30T02:15:01.410Z,4.90
2018-12-30T02:20:07.347Z,4.90
2018-12-30T02:25:13.464Z,4.80
2018-12-30T02:30:19.512Z,4.90
2018-12-30T02:35:25.592Z,4.70
2018-12-30T02:40:31.597Z,4.80
2018-12-30T02:45:37.655Z,4.80
2018-12-30T02:50:43.850Z,4.80
2018-12-30T02:55:50.019Z,4.80
2018-12-30T03:00:56.269Z,4.90
2018-12-30T03:06:02.326Z,4.90
2018-12-30T03:11:08.465Z,4.90
2018-12-30T03:16:14.594Z,4.90
2018-12-30T03:21:20.770Z,5.00
2018-12-30T03:26:26.846Z,5.00
2018-12-30T03:31:32.821Z,5.00
2018-12-30T03:36:39.004Z,5.00
2018-12-30T03:41:45.142Z,5.00
2018-12-30T03:46:51.232Z,5.10
2018-12-30T03:51:57.474Z,5.00
2018-12-30T03:57:03.515Z,5.00
2018-12-30T04:02:09.689Z,5.00
2018-12-30T04:07:15.752Z,5.00
2018-12-30T04:12:21.818Z,5.00
2018-12-30T04:17:27.859Z,5.00
2018-12-30T04:22:34.114Z,5.00
2018-12-30T04:27:40.183Z,5.10
2018-12-30T04:32:46.207Z,5.10
2018-12-30T04:37:52.241Z,5.10
2018-12-30T04:42:59.190Z,5.10
2018-12-30T04:48:05.281Z,5.20
2018-12-30T04:53:11.468Z,5.10
2018-12-30T04:58:17.622Z,5.20
2018-12-30T05:03:23.705Z,5.20
2018-12-30T05:08:29.749Z,5.20
2018-12-30T05:13:35.962Z,5.40
2018-12-30T05:18:42.050Z,5.40
2018-12-30T05:23:48.069Z,5.50
2018-12-30T05:28:54.301Z,5.50
2018-12-30T05:34:00.431Z,5.70
2018-12-30T05:39:07.636Z,5.70
2018-12-30T05:44:13.706Z,5.80
2018-12-30T05:49:19.804Z,5.80
2018-12-30T05:54:25.892Z,5.80
2018-12-30T05:59:32.048Z,5.80
2018-12-30T06:04:38.150Z,5.70
2018-12-30T06:09:44.181Z,5.70
2018-12-30T06:14:50.255Z,5.70
2018-12-30T06:19:56.457Z,5.70
2018-12-30T06:25:02.520Z,5.60
2018-12-30T06:30:08.734Z,5.60
2018-12-30T06:35:14.759Z,5.50
2018-12-30T06:40:20.935Z,5.50
2018-12-30T06:45:27.029Z,5.40
2018-12-30T06:50:33.122Z,5.40
2018-12-30T06:55:39.175Z,5.40
2018-12-30T07:00:45.409Z,5.30
2018-12-30T07:05:51.536Z,5.20
2018-12-30T07:10:57.606Z,5.20
2018-12-30T07:16:03.854Z,5.10
2018-12-30T07:21:10.021Z,5.10
2018-12-30T07:26:16.128Z,5.10
2018-12-30T07:31:22.348Z,5.10
2018-12-30T07:36:28.493Z,5.10
2018-12-30T07:41:34.674Z,5.10
2018-12-30T07:46:40.746Z,5.00
2018-12-30T07:51:46.827Z,5.00
2018-12-30T07:56:52.981Z,5.00
2018-12-30T08:01:59.144Z,4.90
2018-12-30T08:07:05.145Z,4.90
2018-12-30T08:12:13.693Z,5.00
2018-12-30T08:17:19.948Z,5.00
2018-12-30T08:22:26.151Z,4.90
2018-12-30T08:27:32.265Z,4.90
2018-12-30T08:32:38.386Z,5.00
2018-12-30T08:37:44.435Z,5.00
2018-12-30T08:42:50.512Z,5.00
2018-12-30T08:47:56.653Z,5.00
2018-12-30T08:53:02.845Z,4.90
2018-12-30T08:58:08.827Z,5.00
2018-12-30T09:03:14.940Z,4.90
2018-12-30T09:08:20.979Z,4.90
2018-12-30T09:13:27.183Z,4.90
2018-12-30T09:18:33.233Z,4.90
2018-12-30T09:23:39.324Z,4.90
2018-12-30T09:28:45.400Z,5.00
2018-12-30T09:33:51.673Z,5.00
2018-12-30T09:38:57.742Z,4.90
2018-12-30T09:44:03.721Z,5.00
2018-12-30T09:49:09.824Z,5.00
2018-12-30T09:54:16.785Z,5.00
2018-12-30T09:59:22.953Z,5.00
2018-12-30T10:04:29.129Z,5.00
2018-12-30T10:09:35.181Z,5.10
2018-12-30T10:14:41.526Z,5.10
2018-12-30T10:19:47.910Z,5.10
2018-12-30T10:24:54.085Z,5.20
2018-12-30T10:30:00.268Z,5.30
2018-12-30T10:35:06.474Z,5.30
2018-12-30T10:40:12.638Z,5.40
2018-12-30T10:45:18.659Z,5.50
2018-12-30T10:50:24.872Z,5.60
2018-12-30T10:55:30.974Z,5.60
2018-12-30T11:00:37.172Z,5.50
2018-12-30T11:05:43.312Z,5.50
2018-12-30T11:10:49.433Z,5.50
2018-12-30T11:15:55.616Z,5.60
2018-12-30T11:21:01.897Z,5.60
2018-12-30T11:26:07.976Z,5.70
2018-12-30T11:31:14.028Z,5.70
2018-12-30T11:36:20.097Z,5.80
2018-12-30T11:41:26.177Z,5.90
2018-12-30T11:46:32.292Z,6.20
2018-12-30T11:51:38.363Z,6.20
2018-12-30T11:56:44.421Z,6.10
2018-12-30T12:01:50.565Z,6.10
2018-12-30T12:06:56.660Z,6.20
2018-12-30T12:12:02.898Z,6.10
2018-12-30T12:17:09.151Z,6.20
2018-12-30T12:22:15.278Z,6.30
2018-12-30T12:27:21.505Z,6.40
2018-12-30T12:32:27.720Z,6.30
2018-12-30T12:37:33.932Z,6.30
2018-12-30T12:42:40.171Z,6.50
2018-12-30T12:47:46.457Z,6.50
2018-12-30T12:52:52.525Z,6.30
2018-12-30T12:57:58.574Z,6.60
2018-12-30T13:03:04.342Z,6.80
2018-12-30T13:08:10.623Z,6.70
2018-12-30T13:13:16.840Z,6.70
2018-12-30T13:18:22.781Z,6.70
2018-12-30T13:23:28.929Z,6.50
2018-12-30T13:28:35.190Z,6.40
2018-12-30T13:33:41.433Z,6.50
2018-12-30T13:38:47.521Z,6.40
2018-12-30T13:43:53.624Z,6.30
2018-12-30T13:48:59.785Z,6.30
2018-12-30T13:54:05.977Z,6.30
2018-12-30T13:59:12.033Z,6.50
2018-12-30T14:04:18.096Z,6.50
2018-12-30T14:09:24.290Z,6.50
2018-12-30T14:14:30.347Z,6.40
2018-12-30T14:19:36.427Z,6.30
2018-12-30T14:24:42.734Z,6.30
2018-12-30T14:29:48.893Z,6.20
2018-12-30T14:34:55.366Z,6.20
2018-12-30T14:40:01.473Z,6.10
2018-12-30T14:45:08.648Z,6.00
2018-12-30T14:50:14.922Z,6.00
2018-12-30T14:55:21.124Z,5.90
2018-12-30T15:00:27.260Z,6.00
2018-12-30T15:05:33.453Z,6.00
2018-12-30T15:10:39.624Z,6.00
2018-12-30T15:15:45.729Z,6.00
2018-12-30T15:20:51.780Z,6.10
2018-12-30T15:25:58.033Z,6.00
2018-12-30T15:31:04.259Z,6.00
2018-12-30T15:36:10.319Z,6.10
2018-12-30T15:41:16.404Z,6.10
2018-12-30T15:46:22.732Z,6.10
2018-12-30T15:51:28.874Z,6.00
2018-12-30T15:56:34.928Z,6.00
2018-12-30T16:01:41.343Z,5.90
2018-12-30T16:06:47.597Z,6.00
2018-12-30T16:11:54.067Z,6.00
2018-12-30T16:17:00.970Z,6.00
2018-12-30T16:22:07.323Z,6.00
2018-12-30T16:27:13.449Z,6.10
2018-12-30T16:32:19.720Z,6.10
2018-12-30T16:37:25.818Z,6.20
2018-12-30T16:42:32.025Z,6.20
2018-12-30T16:47:41.735Z,6.20
2018-12-30T16:52:45.948Z,6.20
2018-12-30T16:57:52.121Z,6.20
2018-12-30T17:02:58.379Z,6.20
2018-12-30T17:08:04.554Z,6.20
2018-12-30T17:13:10.647Z,6.20
2018-12-30T17:18:16.789Z,6.20
2018-12-30T17:23:22.989Z,6.20
2018-12-30T17:28:29.067Z,6.20
2018-12-30T17:33:35.286Z,6.20
2018-12-30T17:38:41.409Z,6.10
2018-12-30T17:43:47.589Z,6.10
2018-12-30T17:48:53.694Z,6.10
2018-12-30T17:53:59.759Z,6.10
2018-12-30T17:59:05.904Z,6.20
2018-12-30T18:04:12.113Z,6.10
2018-12-30T18:09:18.181Z,6.10
2018-12-30T18:14:24.250Z,6.00
2018-12-30T18:19:30.423Z,6.00
2018-12-30T18:24:36.533Z,6.00
2018-12-30T18:29:42.585Z,6.10
2018-12-30T18:34:48.610Z,6.00
2018-12-30T18:39:54.819Z,6.10
2018-12-30T18:45:00.970Z,6.00
2018-12-30T18:50:07.415Z,6.10
2018-12-30T18:55:13.537Z,6.10
2018-12-30T19:00:20.622Z,6.00
2018-12-30T19:05:26.823Z,6.00
2018-12-30T19:10:33.025Z,6.00
2018-12-30T19:15:39.088Z,6.00
2018-12-30T19:20:45.145Z,6.00
2018-12-30T19:25:51.307Z,5.90
2018-12-30T19:30:57.423Z,5.80
2018-12-30T19:36:03.536Z,5.90
2018-12-30T19:41:09.737Z,5.70
2018-12-30T19:46:15.851Z,5.70
2018-12-30T19:51:21.921Z,5.70
2018-12-30T19:56:28.188Z,5.60
2018-12-30T20:01:34.366Z,5.60
2018-12-30T20:06:40.452Z,5.70
2018-12-30T20:11:46.611Z,5.60
2018-12-30T20:16:52.782Z,5.60
2018-12-30T20:21:59.224Z,5.50
2018-12-30T20:27:05.586Z,5.40
2018-12-30T20:32:12.259Z,5.40
2018-12-30T20:37:18.376Z,5.40
2018-12-30T20:42:24.630Z,5.40
2018-12-30T20:47:30.870Z,5.40
2018-12-30T20:52:36.849Z,5.30
2018-12-30T20:57:43.020Z,5.30
2018-12-30T21:02:49.277Z,5.10
2018-12-30T21:07:55.474Z,5.10
2018-12-30T21:13:01.538Z,5.00
2018-12-30T21:18:07.803Z,5.00
2018-12-30T21:23:13.990Z,4.90
2018-12-30T21:28:20.184Z,4.90
2018-12-30T21:33:26.240Z,4.80
2018-12-30T21:38:32.469Z,4.80
2018-12-30T21:43:38.643Z,4.80
2018-12-30T21:48:44.852Z,4.70
2018-12-30T21:53:50.961Z,4.60
2018-12-30T21:58:57.272Z,4.60
2018-12-30T22:04:03.409Z,4.60
2018-12-30T22:09:09.529Z,4.60
2018-12-30T22:14:15.593Z,4.70
2018-12-30T22:19:21.930Z,4.60
2018-12-30T22:24:29.001Z,4.60
2018-12-30T22:29:35.222Z,4.60
2018-12-30T22:34:41.311Z,4.60
2018-12-30T22:39:47.338Z,4.60
2018-12-30T22:44:53.634Z,4.70
2018-12-30T22:49:59.721Z,4.60
2018-12-30T22:55:06.251Z,4.60
2018-12-30T23:00:23.488Z,4.60
2018-12-30T23:05:29.633Z,4.60
2018-12-30T23:10:35.704Z,4.60
2018-12-30T23:15:41.856Z,4.50
2018-12-30T23:20:47.973Z,4.50
2018-12-30T23:25:54.052Z,4.60
2018-12-30T23:31:00.205Z,4.50
2018-12-30T23:36:06.353Z,4.60
2018-12-30T23:41:12.473Z,4.60
2018-12-30T23:46:18.448Z,4.60
2018-12-30T23:51:24.478Z,4.60
2018-12-30T23:56:30.758Z,4.50
